Time;durP1;ratioP1;P1;durP2;ratioP2;P2;SDS_P1;SDS_P2;PMS_P1;PMS_P2;Temp;Humidity;BMP_temperature;BMP_pressure;BME280_temperature;BME280_humidity;BME280_pressure;Samples;Min_cycle;Max_cycle;Signal;HPM_P1;HPM_P2
2022/06/08 00:03:25;;;;;;;3.43;2.17;;;;;13.50;100563.00;;;;10447657;28;20202;-80
2022/06/08 00:08:27;;;;;;;3.17;2.07;;;;;13.40;100568.00;;;;10457131;28;20209;-79
2022/06/08 00:13:29;;;;;;;3.43;2.40;;;;;13.30;100557.00;;;;10433787;28;20200;-80
2022/06/08 00:18:40;;;;;;;3.70;2.30;;;;;13.20;100555.00;;;;10434535;28;20196;-79
2022/06/08 00:23:43;;;;;;;5.77;2.80;;;;;13.10;100547.00;;;;10422240;28;20226;-80
2022/06/08 00:28:45;;;;;;;2.97;2.40;;;;;13.00;100543.00;;;;10392130;28;20198;-80
2022/06/08 00:33:48;;;;;;;3.07;2.50;;;;;12.80;100538.00;;;;10439662;28;20198;-80
2022/06/08 00:38:50;;;;;;;5.37;3.03;;;;;12.80;100526.00;;;;10408727;28;20289;-80
2022/06/08 00:43:54;;;;;;;8.13;3.33;;;;;12.80;100518.00;;;;10428405;28;20209;-79
2022/06/08 00:49:13;;;;;;;4.77;3.83;;;;;12.80;100522.00;;;;10465447;28;20185;-80
2022/06/08 00:54:22;;;;;;;5.87;3.33;;;;;12.90;100500.00;;;;10432273;28;20247;-79
2022/06/08 00:59:24;;;;;;;4.67;3.53;;;;;13.00;100497.00;;;;10449098;28;20189;-80
2022/06/08 01:04:26;;;;;;;8.90;3.97;;;;;13.10;100483.00;;;;10465609;28;20217;-80
2022/06/08 01:09:36;;;;;;;5.67;4.23;;;;;13.10;100480.00;;;;10470026;28;20193;-80
2022/06/08 01:14:40;;;;;;;7.00;4.20;;;;;13.10;100473.00;;;;10454460;28;20186;-79
2022/06/08 01:19:46;;;;;;;8.97;4.20;;;;;13.10;100476.00;;;;10418921;28;20247;-80
2022/06/08 01:24:52;;;;;;;8.67;4.57;;;;;13.10;100466.00;;;;10430817;28;20214;-80
2022/06/08 01:30:21;;;;;;;12.40;6.10;;;;;13.10;100451.00;;;;10401280;28;20201;-79
2022/06/08 01:35:54;;;;;;;11.63;6.50;;;;;13.10;100449.00;;;;10415836;28;20186;-79
2022/06/08 01:41:13;;;;;;;9.00;6.37;;;;;13.10;100433.00;;;;10416392;28;20810;-80
2022/06/08 01:46:26;;;;;;;9.23;5.80;;;;;13.10;100420.00;;;;10415108;28;20766;-80
2022/06/08 01:51:47;;;;;;;11.00;6.93;;;;;13.10;100411.00;;;;10448002;28;20208;-80
2022/06/08 01:57:15;;;;;;;12.33;6.93;;;;;13.00;100405.00;;;;10439096;28;20211;-79
2022/06/08 02:02:39;;;;;;;10.43;7.50;;;;;13.00;100394.00;;;;10452585;28;20209;-79
2022/06/08 02:07:48;;;;;;;10.37;7.00;;;;;13.10;100390.00;;;;10448414;28;20245;-79
2022/06/08 02:12:55;;;;;;;11.37;6.23;;;;;13.30;100379.00;;;;10413025;28;20213;-79
2022/06/08 02:18:06;;;;;;;10.87;7.03;;;;;13.40;100366.00;;;;10452502;28;20189;-79
2022/06/08 02:23:21;;;;;;;12.83;7.77;;;;;13.50;100366.00;;;;10429969;28;20217;-79
2022/06/08 02:28:31;;;;;;;14.83;7.47;;;;;13.40;100355.00;;;;10444872;28;20229;-79
2022/06/08 02:39:13;;;;;;;11.27;6.47;;;;;13.30;100343.00;;;;10428076;28;20221;-79
2022/06/08 02:44:24;;;;;;;13.90;6.30;;;;;13.30;100352.00;;;;10464204;28;20879;-80
2022/06/08 02:49:28;;;;;;;13.77;5.80;;;;;13.20;100335.00;;;;10411473;28;20190;-79
2022/06/08 02:54:31;;;;;;;15.07;6.03;;;;;13.20;100334.00;;;;10411511;28;20190;-80
2022/06/08 02:59:52;;;;;;;8.50;5.07;;;;;13.30;100324.00;;;;10411964;28;20190;-79
2022/06/08 03:05:33;;;;;;;7.77;4.93;;;;;13.50;100324.00;;;;10450998;28;20255;-80
2022/06/08 03:10:40;;;;;;;9.33;5.30;;;;;13.50;100318.00;;;;10411221;28;20221;-80
2022/06/08 03:15:48;;;;;;;8.33;4.50;;;;;13.60;100326.00;;;;10468429;28;20189;-79
2022/06/08 03:20:52;;;;;;;6.50;4.47;;;;;13.80;100319.00;;;;10426231;28;20222;-80
2022/06/08 03:25:59;;;;;;;6.17;4.60;;;;;13.90;100316.00;;;;10427121;28;20222;-80
2022/06/08 03:31:03;;;;;;;8.23;4.03;;;;;13.90;100309.00;;;;10426252;28;20203;-79
2022/06/08 03:36:08;;;;;;;6.53;4.13;;;;;14.00;100284.00;;;;10427330;28;20194;-80
2022/06/08 03:41:10;;;;;;;9.70;3.90;;;;;14.00;100289.00;;;;10410135;28;20261;-80
2022/06/08 03:46:13;;;;;;;6.77;3.77;;;;;14.00;100293.00;;;;10425671;28;20210;-80
2022/06/08 03:51:16;;;;;;;7.53;3.57;;;;;14.10;100294.00;;;;10459360;28;20209;-79
2022/06/08 03:56:20;;;;;;;4.90;3.20;;;;;14.10;100298.00;;;;10450609;28;20243;-80
2022/06/08 04:01:22;;;;;;;7.53;3.37;;;;;14.20;100285.00;;;;10442409;28;20190;-79
2022/06/08 04:06:29;;;;;;;7.07;3.40;;;;;14.30;100274.00;;;;10443854;28;20304;-79
2022/06/08 04:11:33;;;;;;;6.30;3.63;;;;;14.30;100283.00;;;;10450516;28;20292;-79
2022/06/08 04:16:36;;;;;;;6.60;3.70;;;;;14.40;100277.00;;;;10451348;28;20197;-79
2022/06/08 04:21:43;;;;;;;11.13;3.27;;;;;14.50;100274.00;;;;10442423;28;20198;-79
2022/06/08 04:26:46;;;;;;;8.17;3.57;;;;;14.60;100274.00;;;;10417788;28;20213;-79
2022/06/08 04:31:54;;;;;;;5.83;2.87;;;;;14.80;100272.00;;;;10426669;28;20195;-80
2022/06/08 04:37:01;;;;;;;5.83;3.03;;;;;14.80;100272.00;;;;10419376;28;20198;-80
2022/06/08 04:42:12;;;;;;;5.70;3.10;;;;;15.00;100274.00;;;;10426592;28;20535;-80
2022/06/08 04:47:17;;;;;;;5.70;2.67;;;;;15.20;100270.00;;;;10408761;28;20228;-80
2022/06/08 04:52:21;;;;;;;5.27;2.93;;;;;15.30;100260.00;;;;10465121;28;20248;-80
2022/06/08 04:57:24;;;;;;;8.90;2.77;;;;;15.30;100263.00;;;;10440018;28;20192;-80
2022/06/08 05:02:45;;;;;;;5.77;2.67;;;;;15.40;100262.00;;;;10433192;28;20193;-80
2022/06/08 05:08:02;;;;;;;5.93;2.93;;;;;15.50;100272.00;;;;10450693;28;20213;-79
2022/06/08 05:13:08;;;;;;;8.13;2.43;;;;;15.60;100269.00;;;;10432436;28;20311;-79
2022/06/08 05:18:15;;;;;;;7.60;2.77;;;;;15.80;100255.00;;;;10433456;28;20224;-79
2022/06/08 05:23:22;;;;;;;9.03;2.73;;;;;16.00;100242.00;;;;10465588;28;20209;-80
2022/06/08 05:28:26;;;;;;;8.77;2.50;;;;;16.10;100251.00;;;;10448045;28;20209;-79
2022/06/08 05:33:32;;;;;;;7.30;2.73;;;;;16.30;100249.00;;;;10413051;28;20195;-80
2022/06/08 05:38:40;;;;;;;8.10;2.53;;;;;16.50;100244.00;;;;10408249;28;20361;-80
2022/06/08 05:43:43;;;;;;;8.15;2.58;;;;;16.80;100246.00;;;;10422898;28;20238;-79
2022/06/08 05:48:47;;;;;;;9.00;2.70;;;;;17.00;100251.00;;;;10450617;28;20197;-79
2022/06/08 05:53:49;;;;;;;6.30;2.30;;;;;17.40;100240.00;;;;10447489;28;20213;-79
2022/06/08 05:58:53;;;;;;;3.30;1.95;;;;;17.50;100237.00;;;;10431062;28;20217;-79
2022/06/08 06:03:56;;;;;;;6.38;2.58;;;;;17.50;100240.00;;;;10430633;28;20248;-79
2022/06/08 06:08:58;;;;;;;5.03;2.20;;;;;17.40;100235.00;;;;10433781;28;20212;-79
2022/06/08 06:14:01;;;;;;;6.75;2.28;;;;;17.30;100239.00;;;;10453923;28;20205;-80
2022/06/08 06:19:04;;;;;;;5.07;2.05;;;;;17.50;100241.00;;;;10466663;28;20218;-79
2022/06/08 06:24:27;;;;;;;5.93;2.22;;;;;17.70;100237.00;;;;10472606;28;20218;-79
2022/06/08 06:29:51;;;;;;;6.18;2.00;;;;;17.80;100240.00;;;;10462899;28;20682;-79
2022/06/08 06:34:59;;;;;;;6.10;2.60;;;;;17.70;100237.00;;;;10460073;28;20787;-80
2022/06/08 06:40:02;;;;;;;5.60;2.10;;;;;17.60;100239.00;;;;10429844;28;20565;-80
2022/06/08 06:45:07;;;;;;;7.80;3.00;;;;;17.50;100237.00;;;;10439434;28;20266;-79
2022/06/08 06:50:16;;;;;;;4.60;2.42;;;;;17.40;100228.00;;;;10449024;28;20269;-80
2022/06/08 06:55:28;;;;;;;7.80;2.70;;;;;17.40;100233.00;;;;10419506;28;20228;-80
2022/06/08 07:00:34;;;;;;;6.70;2.50;;;;;17.20;100239.00;;;;10452841;28;20672;-80
2022/06/08 07:05:40;;;;;;;8.18;2.50;;;;;17.10;100233.00;;;;10450650;28;20248;-80
2022/06/08 07:10:44;;;;;;;7.53;3.00;;;;;17.00;100238.00;;;;10435990;28;20672;-80
2022/06/08 07:15:47;;;;;;;10.68;3.40;;;;;17.00;100237.00;;;;10451086;28;20190;-79
2022/06/08 07:20:50;;;;;;;6.35;2.83;;;;;16.90;100227.00;;;;10451153;28;20186;-80
2022/06/08 07:25:52;;;;;;;6.70;3.00;;;;;16.80;100222.00;;;;10434965;28;20225;-80
2022/06/08 07:30:54;;;;;;;6.57;2.83;;;;;16.90;100230.00;;;;10452167;28;20275;-80
2022/06/08 07:35:57;;;;;;;6.20;2.50;;;;;16.90;100225.00;;;;10433803;28;20185;-80
2022/06/08 07:40:59;;;;;;;9.23;3.08;;;;;17.00;100215.00;;;;10452242;28;20195;-80
2022/06/08 07:46:01;;;;;;;7.57;2.88;;;;;17.10;100230.00;;;;10435815;28;20430;-79
2022/06/08 07:51:03;;;;;;;6.65;2.97;;;;;17.30;100225.00;;;;10452732;28;20240;-81
2022/06/08 07:56:06;;;;;;;7.60;2.78;;;;;17.40;100233.00;;;;10410551;28;20222;-80
2022/06/08 08:01:09;;;;;;;6.63;2.65;;;;;17.80;100227.00;;;;10410735;28;20217;-80
2022/06/08 08:06:11;;;;;;;6.07;2.75;;;;;18.10;100235.00;;;;10451101;28;20229;-81
2022/06/08 08:11:13;;;;;;;9.55;3.00;;;;;18.30;100228.00;;;;10409353;28;20198;-80
2022/06/08 08:16:15;;;;;;;15.45;3.38;;;;;18.20;100228.00;;;;10430954;28;20194;-81
2022/06/08 08:21:17;;;;;;;11.98;3.58;;;;;18.10;100231.00;;;;10450130;28;20198;-81
2022/06/08 08:26:19;;;;;;;9.63;3.22;;;;;18.10;100226.00;;;;10465443;28;20221;-81
2022/06/08 08:31:21;;;;;;;5.72;2.13;;;;;17.80;100235.00;;;;10441107;28;20205;-80
2022/06/08 08:36:23;;;;;;;8.30;3.03;;;;;17.50;100220.00;;;;10440177;28;20545;-81
2022/06/08 08:47:02;;;;;;;12.55;3.45;;;;;17.00;100218.00;;;;10423406;28;20213;-80
2022/06/08 08:52:24;;;;;;;15.05;4.70;;;;;17.00;100214.00;;;;10411650;28;20193;-80
2022/06/08 08:57:56;;;;;;;14.07;3.58;;;;;17.10;100202.00;;;;10396567;28;20260;-80
2022/06/08 09:03:18;;;;;;;12.93;4.00;;;;;16.80;100196.00;;;;10436329;28;20270;-80
2022/06/08 09:08:24;;;;;;;11.60;3.45;;;;;16.50;100195.00;;;;10405060;28;20210;-82
2022/06/08 09:13:48;;;;;;;9.73;2.90;;;;;16.60;100203.00;;;;10425813;28;20606;-81
2022/06/08 09:18:50;;;;;;;6.13;3.10;;;;;16.50;100191.00;;;;10437834;28;20237;-81
2022/06/08 09:23:55;;;;;;;10.15;3.38;;;;;16.40;100193.00;;;;10449511;28;20331;-81
2022/06/08 09:29:08;;;;;;;7.90;3.42;;;;;16.10;100189.00;;;;10414238;28;20202;-80
2022/06/08 09:34:19;;;;;;;7.50;3.08;;;;;16.20;100177.00;;;;10436441;28;20194;-79
2022/06/08 09:39:21;;;;;;;8.00;2.83;;;;;16.10;100175.00;;;;10433307;28;20591;-79
2022/06/08 09:44:26;;;;;;;9.50;3.53;;;;;15.90;100181.00;;;;10427877;28;20209;-78
2022/06/08 09:55:04;;;;;;;12.75;2.88;;;;;16.10;100174.00;;;;10466030;28;20190;-79
2022/06/08 10:00:28;;;;;;;6.70;2.90;;;;;16.10;100178.00;;;;10446320;28;20280;-79
2022/06/08 10:05:49;;;;;;;5.43;2.90;;;;;16.10;100179.00;;;;10466387;28;20209;-80
2022/06/08 10:11:01;;;;;;;6.18;2.58;;;;;16.00;100165.00;;;;10425744;28;20244;-80
2022/06/08 10:16:18;;;;;;;12.65;3.65;;;;;16.00;100152.00;;;;10439731;28;20182;-79
2022/06/08 10:21:26;;;;;;;7.00;2.75;;;;;15.90;100157.00;;;;10441222;28;20562;-77
2022/06/08 10:26:42;;;;;;;5.17;2.37;;;;;15.90;100155.00;;;;10452279;28;20266;-77
2022/06/08 10:31:54;;;;;;;5.37;2.50;;;;;16.00;100162.00;;;;10437756;28;20201;-77
2022/06/08 10:36:59;;;;;;;4.83;2.63;;;;;16.10;100152.00;;;;10449555;28;20182;-78
2022/06/08 10:42:42;;;;;;;4.77;2.60;;;;;16.10;100159.00;;;;10425311;28;20190;-77
2022/06/08 10:47:58;;;;;;;3.95;2.17;;;;;16.20;100168.00;;;;10431789;28;20217;-77
2022/06/08 10:59:07;;;;;;;4.30;2.55;;;;;16.20;100169.00;;;;10448362;28;20297;-77
2022/06/08 11:04:35;;;;;;;3.75;2.05;;;;;16.40;100154.00;;;;10456961;28;20248;-77
2022/06/08 11:09:39;;;;;;;4.72;2.10;;;;;16.60;100154.00;;;;10460950;28;20205;-76
2022/06/08 11:14:48;;;;;;;5.65;1.90;;;;;16.70;100156.00;;;;10482801;28;20182;-76
2022/06/08 11:19:56;;;;;;;4.00;2.17;;;;;16.80;100148.00;;;;10449368;28;20190;-77
2022/06/08 11:25:03;;;;;;;3.05;1.40;;;;;16.70;100153.00;;;;10483685;28;20201;-77
2022/06/08 11:30:14;;;;;;;5.97;1.80;;;;;16.70;100141.00;;;;10478958;28;20215;-77
2022/06/08 11:35:35;;;;;;;4.35;1.60;;;;;16.70;100139.00;;;;10465382;28;20675;-77
2022/06/08 11:40:37;;;;;;;1.52;1.42;;;;;16.80;100139.00;;;;10465870;28;20196;-77
2022/06/08 11:45:51;;;;;;;5.50;1.42;;;;;17.00;100139.00;;;;10493803;28;20201;-77
2022/06/08 11:51:00;;;;;;;3.10;1.50;;;;;17.20;100129.00;;;;10481475;28;20202;-78
2022/06/08 11:56:22;;;;;;;3.20;1.30;;;;;17.20;100131.00;;;;10465618;28;20193;-78
2022/06/08 12:01:30;;;;;;;4.60;1.42;;;;;17.20;100137.00;;;;10435662;28;20652;-78
2022/06/08 12:06:38;;;;;;;4.53;1.35;;;;;17.60;100144.00;;;;10463992;28;20205;-78
2022/06/08 12:11:45;;;;;;;3.25;1.17;;;;;17.50;100142.00;;;;10447986;28;20198;-77
2022/06/08 12:16:58;;;;;;;2.65;1.30;;;;;17.50;100147.00;;;;10446052;28;20192;-78
2022/06/08 12:22:19;;;;;;;2.13;1.33;;;;;17.50;100144.00;;;;10438871;28;20206;-78
2022/06/08 12:27:23;;;;;;;2.67;1.30;;;;;17.70;100145.00;;;;10455215;28;20216;-78
2022/06/08 12:32:36;;;;;;;2.95;2.00;;;;;18.00;100147.00;;;;10415055;28;20682;-78
2022/06/08 12:37:40;;;;;;;5.63;2.33;;;;;18.00;100144.00;;;;10461983;28;20193;-77
2022/06/08 12:42:51;;;;;;;4.28;2.45;;;;;17.60;100149.00;;;;10436788;28;20190;-78
2022/06/08 12:47:53;;;;;;;7.30;2.40;;;;;18.00;100149.00;;;;10468160;28;20267;-78
2022/06/08 12:53:02;;;;;;;9.98;2.70;;;;;18.20;100148.00;;;;10477459;28;20656;-77
2022/06/08 12:58:04;;;;;;;4.35;2.40;;;;;18.00;100152.00;;;;10477859;28;20188;-77
2022/06/08 13:03:18;;;;;;;4.45;2.15;;;;;18.00;100154.00;;;;10464941;28;20200;-77
2022/06/08 13:08:25;;;;;;;9.43;3.08;;;;;17.90;100159.00;;;;10466622;28;20231;-78
2022/06/08 13:13:30;;;;;;;6.80;2.88;;;;;17.80;100158.00;;;;10465272;28;20194;-77
2022/06/08 13:18:33;;;;;;;6.60;2.88;;;;;17.80;100162.00;;;;10470910;28;20203;-78
2022/06/08 13:23:35;;;;;;;6.90;3.20;;;;;17.80;100153.00;;;;10453870;28;20197;-77
2022/06/08 13:28:37;;;;;;;7.22;3.13;;;;;17.90;100161.00;;;;10454457;28;20210;-77
2022/06/08 13:39:06;;;;;;;8.70;3.65;;;;;18.00;100156.00;;;;10435931;28;20746;-77
2022/06/08 13:44:25;;;;;;;10.43;4.25;;;;;18.40;100159.00;;;;10468350;28;20206;-77
2022/06/08 13:49:30;;;;;;;11.95;4.45;;;;;18.90;100172.00;;;;10479956;28;20205;-78
2022/06/08 13:54:39;;;;;;;11.43;4.30;;;;;18.90;100182.00;;;;10484107;28;20185;-76
2022/06/08 13:59:44;;;;;;;14.55;4.45;;;;;18.70;100167.00;;;;10483954;28;20197;-78
2022/06/08 14:04:47;;;;;;;13.10;4.45;;;;;18.40;100171.00;;;;10438134;28;20212;-74
2022/06/08 14:15:19;;;;;;;17.00;4.07;;;;;18.20;100170.00;;;;10426404;28;20284;-77
2022/06/08 14:20:29;;;;;;;14.50;4.32;;;;;18.00;100159.00;;;;10449594;28;20275;-77
2022/06/08 14:25:31;;;;;;;15.40;4.13;;;;;18.00;100155.00;;;;10463853;28;20673;-77
2022/06/08 14:30:34;;;;;;;16.25;4.03;;;;;18.20;100156.00;;;;10465116;28;20194;-77
2022/06/08 14:35:43;;;;;;;13.88;4.40;;;;;18.20;100152.00;;;;10481766;28;20659;-77
2022/06/08 14:41:05;;;;;;;10.80;4.13;;;;;18.10;100147.00;;;;10443409;28;20186;-77
2022/06/08 14:46:13;;;;;;;14.27;4.22;;;;;18.00;100157.00;;;;10426528;28;20202;-77
2022/06/08 14:51:18;;;;;;;13.20;4.43;;;;;18.10;100149.00;;;;10485811;28;20198;-75
2022/06/08 14:56:23;;;;;;;17.42;4.43;;;;;18.50;100151.00;;;;10445893;28;20243;-78
2022/06/08 15:01:28;;;;;;;17.15;4.78;;;;;19.00;100158.00;;;;10451178;28;20267;-77
2022/06/08 15:06:31;;;;;;;12.80;4.35;;;;;19.10;100165.00;;;;10492647;28;20293;-77
2022/06/08 15:16:55;;;;;;;19.70;4.60;;;;;19.80;100157.00;;;;10408118;28;20193;-75
2022/06/08 15:21:59;;;;;;;11.38;3.88;;;;;21.10;100165.00;;;;10433088;28;20251;-76
2022/06/08 15:27:09;;;;;;;13.40;3.50;;;;;26.50;100157.00;;;;10435956;28;20214;-76
2022/06/08 15:32:21;;;;;;;10.70;3.55;;;;;27.50;100150.00;;;;10429286;28;20240;-76
2022/06/08 15:37:27;;;;;;;11.48;3.80;;;;;26.00;100160.00;;;;10433216;28;20193;-76
2022/06/08 15:42:30;;;;;;;11.23;3.25;;;;;24.10;100162.00;;;;10463825;28;20252;-76
2022/06/08 15:47:39;;;;;;;6.68;2.33;;;;;23.50;100164.00;;;;10438279;28;20209;-76
2022/06/08 15:52:45;;;;;;;9.57;2.67;;;;;22.70;100161.00;;;;10444597;28;20541;-76
2022/06/08 15:57:48;;;;;;;9.07;2.30;;;;;21.80;100153.00;;;;10443489;28;20275;-76
2022/06/08 16:02:53;;;;;;;10.23;2.38;;;;;21.00;100147.00;;;;10416163;28;20244;-75
2022/06/08 16:07:57;;;;;;;8.20;1.80;;;;;21.00;100141.00;;;;10465637;28;20221;-76
2022/06/08 16:13:00;;;;;;;9.38;2.45;;;;;21.50;100138.00;;;;10420772;28;20277;-76
2022/06/08 16:18:03;;;;;;;11.45;2.40;;;;;22.00;100133.00;;;;10424107;28;20194;-75
2022/06/08 16:23:07;;;;;;;7.13;1.92;;;;;22.10;100143.00;;;;10459835;28;20201;-75
2022/06/08 16:28:10;;;;;;;5.07;2.00;;;;;21.80;100146.00;;;;10447905;28;20584;-75
2022/06/08 16:33:12;;;;;;;8.05;2.42;;;;;20.90;100148.00;;;;10459382;28;20239;-76
2022/06/08 16:38:16;;;;;;;8.50;1.80;;;;;20.50;100136.00;;;;10475316;28;20193;-76
2022/06/08 16:43:19;;;;;;;7.72;1.70;;;;;20.70;100147.00;;;;10439746;28;20229;-76
2022/06/08 16:48:21;;;;;;;6.15;1.85;;;;;20.30;100154.00;;;;10436694;28;20218;-76
2022/06/08 16:53:23;;;;;;;2.67;1.30;;;;;20.80;100154.00;;;;10431972;28;20231;-76
2022/06/08 17:03:46;;;;;;;8.88;1.70;;;;;19.90;100162.00;;;;10435685;28;20248;-78
2022/06/08 17:08:48;;;;;;;4.07;1.67;;;;;19.80;100161.00;;;;10475319;28;20206;-76
2022/06/08 17:13:50;;;;;;;5.07;1.40;;;;;19.90;100170.00;;;;10406037;28;20317;-76
2022/06/08 17:18:51;;;;;;;4.38;1.58;;;;;19.80;100186.00;;;;10431193;28;20224;-77
2022/06/08 17:23:57;;;;;;;9.43;1.63;;;;;19.80;100178.00;;;;10462523;28;20194;-78
2022/06/08 17:28:59;;;;;;;6.47;1.77;;;;;19.90;100178.00;;;;10457815;28;20247;-77
2022/06/08 17:34:01;;;;;;;4.53;1.50;;;;;19.40;100181.00;;;;10422624;28;20194;-78
2022/06/08 17:39:04;;;;;;;5.43;1.30;;;;;19.20;100187.00;;;;10422381;28;20222;-78
2022/06/08 17:44:06;;;;;;;5.55;1.38;;;;;19.50;100187.00;;;;10423800;28;20194;-75
2022/06/08 17:49:11;;;;;;;7.13;1.60;;;;;19.00;100191.00;;;;10477167;28;20217;-77
2022/06/08 17:54:13;;;;;;;7.03;1.65;;;;;18.70;100195.00;;;;10475973;28;20206;-77
2022/06/08 17:59:16;;;;;;;6.55;1.50;;;;;18.50;100207.00;;;;10444200;28;20696;-77
2022/06/08 18:04:21;;;;;;;3.70;1.20;;;;;18.70;100198.00;;;;10453304;28;20226;-77
2022/06/08 18:09:24;;;;;;;5.50;1.65;;;;;19.20;100201.00;;;;10469340;28;20189;-77
2022/06/08 18:14:32;;;;;;;10.73;1.70;;;;;18.80;100203.00;;;;10440136;28;20305;-78
2022/06/08 18:19:35;;;;;;;6.93;1.80;;;;;18.40;100201.00;;;;10447041;28;20326;-77
2022/06/08 18:24:37;;;;;;;3.28;1.48;;;;;18.20;100208.00;;;;10426147;28;20205;-77
2022/06/08 18:29:41;;;;;;;4.85;1.60;;;;;18.00;100218.00;;;;10451909;28;20218;-77
2022/06/08 18:34:43;;;;;;;8.90;1.58;;;;;17.60;100221.00;;;;10428109;28;20608;-77
2022/06/08 18:39:46;;;;;;;5.88;1.70;;;;;17.30;100225.00;;;;10436486;28;20194;-76
2022/06/08 18:44:49;;;;;;;5.70;1.67;;;;;17.00;100240.00;;;;10468309;28;20247;-76
2022/06/08 18:49:51;;;;;;;9.63;1.73;;;;;17.00;100232.00;;;;10469059;28;20196;-77
2022/06/08 18:54:54;;;;;;;5.55;2.00;;;;;17.00;100254.00;;;;10478762;28;20194;-77
2022/06/08 18:59:57;;;;;;;5.38;1.45;;;;;16.80;100240.00;;;;10465195;28;20201;-78
2022/06/08 19:04:59;;;;;;;4.97;1.60;;;;;16.80;100250.00;;;;10450635;28;20214;-77
2022/06/08 19:10:01;;;;;;;4.75;1.30;;;;;16.80;100253.00;;;;10462346;28;20198;-78
2022/06/08 19:15:03;;;;;;;4.80;1.38;;;;;16.80;100258.00;;;;10464951;28;20198;-78
2022/06/08 19:25:26;;;;;;;7.63;1.65;;;;;16.20;100250.00;;;;10478456;28;20227;-78
2022/06/08 19:30:33;;;;;;;7.25;1.92;;;;;16.10;100258.00;;;;10450767;28;20372;-77
2022/06/08 19:35:35;;;;;;;7.18;1.80;;;;;16.00;100261.00;;;;10466329;28;20192;-78
2022/06/08 19:40:37;;;;;;;5.68;1.52;;;;;15.90;100271.00;;;;10471598;28;20251;-78
2022/06/08 19:45:39;;;;;;;9.82;2.03;;;;;15.80;100274.00;;;;10467019;28;20785;-77
2022/06/08 19:50:43;;;;;;;6.33;1.67;;;;;15.60;100279.00;;;;10483107;28;20247;-77
2022/06/08 19:55:46;;;;;;;4.15;1.33;;;;;15.60;100289.00;;;;10418852;28;20249;-77
2022/06/08 20:00:50;;;;;;;8.77;2.05;;;;;15.50;100301.00;;;;10440607;28;20212;-77
2022/06/08 20:05:59;;;;;;;5.30;1.55;;;;;15.40;100303.00;;;;10480820;28;20629;-77
2022/06/08 20:11:02;;;;;;;4.90;1.53;;;;;15.30;100304.00;;;;10428848;28;20206;-77
2022/06/08 20:16:04;;;;;;;4.00;1.52;;;;;15.10;100308.00;;;;10415285;28;20178;-77
2022/06/08 20:21:08;;;;;;;8.07;1.73;;;;;15.10;100320.00;;;;10460736;28;20197;-77
2022/06/08 20:26:11;;;;;;;5.75;2.20;;;;;15.10;100334.00;;;;10430261;28;20251;-77
2022/06/08 20:31:13;;;;;;;12.57;2.27;;;;;15.00;100346.00;;;;10456595;28;20201;-77
2022/06/08 20:36:16;;;;;;;9.03;2.27;;;;;14.90;100344.00;;;;10469239;28;20244;-77
2022/06/08 20:41:19;;;;;;;5.70;1.83;;;;;14.80;100356.00;;;;10450455;28;20198;-77
2022/06/08 20:46:21;;;;;;;9.50;2.40;;;;;14.80;100347.00;;;;10462483;28;20210;-76
2022/06/08 20:51:23;;;;;;;8.27;1.93;;;;;14.90;100359.00;;;;10468977;28;20226;-77
2022/06/08 20:56:25;;;;;;;11.20;2.00;;;;;14.90;100375.00;;;;10429251;28;20262;-77
2022/06/08 21:01:28;;;;;;;9.67;1.93;;;;;14.80;100367.00;;;;10441555;28;20194;-77
2022/06/08 21:06:30;;;;;;;6.43;1.43;;;;;14.80;100376.00;;;;10465677;28;20225;-77
2022/06/08 21:11:33;;;;;;;13.37;1.97;;;;;14.70;100374.00;;;;10430117;28;20247;-77
2022/06/08 21:16:36;;;;;;;8.60;1.90;;;;;14.70;100381.00;;;;10405181;28;20244;-78
2022/06/08 21:21:38;;;;;;;7.53;2.17;;;;;14.60;100375.00;;;;10472770;28;20265;-77
2022/06/08 21:26:40;;;;;;;8.93;2.20;;;;;14.50;100377.00;;;;10484608;28;20217;-77
2022/06/08 21:31:43;;;;;;;7.50;2.03;;;;;14.50;100382.00;;;;10467342;28;20190;-77
2022/06/08 21:36:46;;;;;;;10.83;2.10;;;;;14.40;100377.00;;;;10433322;28;20273;-77
2022/06/08 21:41:50;;;;;;;12.87;2.50;;;;;14.30;100373.00;;;;10465539;28;20255;-77
2022/06/08 21:46:53;;;;;;;12.20;2.80;;;;;14.40;100384.00;;;;10482183;28;20259;-77
2022/06/08 21:51:55;;;;;;;17.63;2.93;;;;;14.40;100373.00;;;;10433660;28;20690;-78
2022/06/08 21:56:57;;;;;;;11.43;2.63;;;;;14.40;100373.00;;;;10453379;28;20193;-77
2022/06/08 22:02:00;;;;;;;9.33;2.80;;;;;14.40;100370.00;;;;10503738;28;20560;-77
2022/06/08 22:07:04;;;;;;;20.17;3.30;;;;;14.50;100376.00;;;;10455328;28;20216;-77
2022/06/08 22:12:07;;;;;;;6.83;2.30;;;;;14.40;100373.00;;;;10480805;28;20197;-77
2022/06/08 22:17:11;;;;;;;9.97;2.57;;;;;14.30;100384.00;;;;10466942;28;20324;-78
2022/06/08 22:22:13;;;;;;;8.83;2.10;;;;;14.10;100385.00;;;;10438820;28;20201;-77
2022/06/08 22:27:15;;;;;;;14.47;2.40;;;;;14.00;100376.00;;;;10428959;28;20328;-77
2022/06/08 22:32:17;;;;;;;12.63;2.47;;;;;13.90;100389.00;;;;10466490;28;20197;-77
2022/06/08 22:37:18;;;;;;;14.63;2.77;;;;;13.80;100393.00;;;;10448005;28;20405;-77
2022/06/08 22:42:20;;;;;;;14.50;3.07;;;;;13.70;100391.00;;;;10454336;28;20251;-77
2022/06/08 22:47:23;;;;;;;11.47;2.67;;;;;13.60;100405.00;;;;10460627;28;20216;-77
2022/06/08 22:52:25;;;;;;;18.57;2.87;;;;;13.60;100402.00;;;;10436257;28;20201;-77
2022/06/08 22:57:27;;;;;;;10.87;2.80;;;;;13.70;100405.00;;;;10436907;28;20193;-77
2022/06/08 23:02:29;;;;;;;18.53;3.20;;;;;13.80;100402.00;;;;10452871;28;20259;-77
2022/06/08 23:07:31;;;;;;;20.67;4.13;;;;;13.90;100418.00;;;;10432294;28;20237;-77
2022/06/08 23:12:32;;;;;;;15.63;2.97;;;;;13.90;100420.00;;;;10443476;28;20194;-78
2022/06/08 23:22:57;;;;;;;18.67;3.50;;;;;13.90;100436.00;;;;10483944;28;20185;-77
2022/06/08 23:27:59;;;;;;;11.33;3.93;;;;;13.70;100435.00;;;;10468341;28;20224;-77
2022/06/08 23:33:01;;;;;;;21.47;3.73;;;;;13.60;100438.00;;;;10467239;28;20214;-77
2022/06/08 23:38:05;;;;;;;13.47;3.63;;;;;13.60;100437.00;;;;10475064;28;20199;-77
2022/06/08 23:43:07;;;;;;;19.30;4.10;;;;;13.60;100432.00;;;;10453651;28;20259;-77
2022/06/08 23:48:11;;;;;;;19.73;4.77;;;;;13.60;100437.00;;;;10433455;28;20323;-77
2022/06/08 23:53:13;;;;;;;22.47;4.33;;;;;13.60;100441.00;;;;10465037;28;20288;-77
2022/06/08 23:58:15;;;;;;;12.43;3.70;;;;;13.60;100440.00;;;;10442162;28;20228;-78
